Time;durP1;ratioP1;P1;durP2;ratioP2;P2;SDS_P1;SDS_P2;PMS_P1;PMS_P2;Temp;Humidity;BMP_temperature;BMP_pressure;BME280_temperature;BME280_humidity;BME280_pressure;Samples;Min_cycle;Max_cycle;Signal;HPM_P1;HPM_P2
2022/08/22 00:00:15;;;;;;;4.87;2.13;;;15.90;99.90;;;;;;10151373;29;20209;-95
2022/08/22 00:05:45;;;;;;;4.47;2.40;;;15.70;99.90;;;;;;10188884;29;20232;-95
2022/08/22 00:11:06;;;;;;;12.02;2.22;;;15.60;99.90;;;;;;10188365;29;20244;-95
2022/08/22 00:16:27;;;;;;;4.53;2.08;;;15.50;99.90;;;;;;10191503;29;20681;-96
2022/08/22 00:21:56;;;;;;;5.13;2.10;;;15.50;99.90;;;;;;10188842;29;20243;-95
2022/08/22 00:27:11;;;;;;;5.23;2.17;;;15.40;99.90;;;;;;10141767;29;20260;-94
2022/08/22 00:32:31;;;;;;;3.23;2.30;;;15.40;99.90;;;;;;10165844;29;20195;-95
2022/08/22 00:37:40;;;;;;;2.43;1.83;;;15.30;99.90;;;;;;10169018;29;20211;-94
2022/08/22 00:43:12;;;;;;;4.20;2.13;;;15.30;99.90;;;;;;10145924;29;20208;-95
2022/08/22 00:48:38;;;;;;;4.40;2.67;;;15.20;99.90;;;;;;10164656;29;20231;-94
2022/08/22 00:54:20;;;;;;;2.97;1.90;;;15.30;99.90;;;;;;10178803;29;20199;-95
2022/08/22 00:59:44;;;;;;;6.00;2.13;;;15.20;99.90;;;;;;10150092;29;20211;-95
2022/08/22 01:05:30;;;;;;;2.80;2.30;;;15.10;99.90;;;;;;10149333;29;20212;-94
2022/08/22 01:11:05;;;;;;;3.60;1.83;;;15.20;99.90;;;;;;10164488;29;20236;-95
2022/08/22 01:16:27;;;;;;;8.67;2.47;;;15.10;99.90;;;;;;10164690;29;20204;-95
2022/08/22 01:21:52;;;;;;;5.40;2.23;;;15.10;99.90;;;;;;10185418;29;20314;-94
2022/08/22 01:27:24;;;;;;;4.03;2.97;;;15.00;99.90;;;;;;10141611;29;20236;-95
2022/08/22 01:32:30;;;;;;;3.80;1.93;;;15.10;99.90;;;;;;10168125;29;20602;-94
2022/08/22 01:37:33;;;;;;;6.70;2.93;;;15.10;99.90;;;;;;10168402;29;20219;-95
2022/08/22 01:42:57;;;;;;;5.77;3.37;;;15.10;99.90;;;;;;10163644;29;20286;-95
2022/08/22 01:48:23;;;;;;;4.80;2.40;;;15.30;99.90;;;;;;10177848;29;20255;-95
2022/08/22 01:53:37;;;;;;;3.77;2.93;;;15.20;99.90;;;;;;10182061;29;20275;-94
2022/08/22 01:59:02;;;;;;;3.90;2.73;;;15.20;99.90;;;;;;10174237;29;20643;-95
2022/08/22 02:04:39;;;;;;;4.60;2.80;;;15.20;99.90;;;;;;10131429;29;20212;-95
2022/08/22 02:10:09;;;;;;;7.77;3.27;;;15.20;99.90;;;;;;10134985;29;20307;-94
2022/08/22 02:15:37;;;;;;;6.20;3.63;;;15.20;99.90;;;;;;10153273;29;20225;-95
2022/08/22 02:21:23;;;;;;;4.00;2.47;;;15.30;99.90;;;;;;10185007;29;20247;-96
2022/08/22 02:26:42;;;;;;;4.63;3.10;;;15.30;99.90;;;;;;10094846;29;20257;-96
2022/08/22 02:31:52;;;;;;;6.40;2.70;;;15.50;99.90;;;;;;10080542;29;20212;-95
2022/08/22 02:37:28;;;;;;;7.50;3.70;;;15.40;99.90;;;;;;10077606;29;20205;-96
2022/08/22 02:42:54;;;;;;;4.60;3.20;;;15.30;99.90;;;;;;10110500;29;20208;-95
2022/08/22 02:48:10;;;;;;;4.13;2.80;;;15.40;99.90;;;;;;10081528;29;20246;-94
2022/08/22 02:53:22;;;;;;;5.07;3.33;;;15.30;99.90;;;;;;10114943;29;20270;-95
2022/08/22 02:58:40;;;;;;;4.20;2.73;;;15.40;99.90;;;;;;10135360;29;20244;-95
2022/08/22 03:03:50;;;;;;;5.20;2.57;;;15.60;99.90;;;;;;10174568;29;20216;-95
2022/08/22 03:09:22;;;;;;;4.63;3.17;;;15.60;99.90;;;;;;10176914;29;20220;-95
2022/08/22 03:14:43;;;;;;;8.07;3.37;;;15.60;99.90;;;;;;10208850;29;20204;-95
2022/08/22 03:20:04;;;;;;;7.43;3.90;;;15.50;99.90;;;;;;10198246;29;20219;-92
2022/08/22 03:25:18;;;;;;;6.30;3.13;;;15.50;99.90;;;;;;10163490;29;20220;-94
2022/08/22 03:30:32;;;;;;;4.57;3.23;;;15.50;99.90;;;;;;10179383;29;20248;-94
2022/08/22 03:35:44;;;;;;;7.83;3.57;;;15.50;99.90;;;;;;10168458;29;20208;-95
2022/08/22 03:41:08;;;;;;;12.43;3.03;;;15.40;99.90;;;;;;10178566;29;20215;-94
2022/08/22 03:46:15;;;;;;;5.90;3.23;;;15.50;99.90;;;;;;10180787;29;20240;-95
2022/08/22 03:51:47;;;;;;;8.97;3.17;;;15.40;99.90;;;;;;10185795;29;20231;-96
2022/08/22 03:57:17;;;;;;;8.53;3.50;;;15.50;99.90;;;;;;10177429;29;20220;-96
2022/08/22 04:02:26;;;;;;;3.70;3.00;;;15.40;99.90;;;;;;10170662;29;20215;-93
2022/08/22 04:08:08;;;;;;;4.73;3.27;;;15.30;99.90;;;;;;10182832;29;20227;-95
2022/08/22 04:13:37;;;;;;;6.07;3.03;;;15.30;99.90;;;;;;10185715;29;20264;-95
2022/08/22 04:19:17;;;;;;;4.07;3.43;;;15.40;99.90;;;;;;10154272;29;20243;-94
2022/08/22 04:24:45;;;;;;;4.07;3.30;;;15.30;99.90;;;;;;10141294;29;20239;-93
2022/08/22 04:30:30;;;;;;;7.47;3.23;;;15.30;99.90;;;;;;10134109;29;20233;-94
2022/08/22 04:35:52;;;;;;;3.53;2.90;;;15.60;99.90;;;;;;10177163;29;20244;-93
2022/08/22 04:41:00;;;;;;;7.33;3.53;;;15.50;99.90;;;;;;10166677;29;20282;-94
2022/08/22 04:46:21;;;;;;;6.50;3.53;;;15.40;99.90;;;;;;10147376;29;20200;-93
2022/08/22 04:51:43;;;;;;;5.87;3.30;;;15.40;99.90;;;;;;10150016;29;20241;-94
2022/08/22 04:57:04;;;;;;;9.57;3.43;;;15.40;99.90;;;;;;10110828;29;20204;-94
2022/08/22 05:02:10;;;;;;;7.03;3.90;;;15.40;99.90;;;;;;10111186;29;20216;-94
2022/08/22 05:07:19;;;;;;;4.67;3.70;;;15.40;99.90;;;;;;10096828;29;20261;-94
2022/08/22 05:12:31;;;;;;;4.07;3.50;;;15.40;99.90;;;;;;10110820;29;20213;-95
2022/08/22 05:17:37;;;;;;;8.57;4.13;;;15.50;99.90;;;;;;10095670;29;20213;-94
2022/08/22 05:22:44;;;;;;;8.03;3.60;;;15.40;99.90;;;;;;10136066;29;20240;-95
2022/08/22 05:27:52;;;;;;;4.47;3.93;;;15.40;99.90;;;;;;10139326;29;20291;-95
2022/08/22 05:33:25;;;;;;;6.57;3.57;;;15.40;99.90;;;;;;10109902;29;20245;-94
2022/08/22 05:38:31;;;;;;;3.50;3.20;;;15.50;99.90;;;;;;10125565;29;20672;-93
2022/08/22 05:43:41;;;;;;;7.37;4.00;;;15.50;99.90;;;;;;10095040;29;20205;-93
2022/08/22 05:48:59;;;;;;;5.37;3.93;;;15.50;99.90;;;;;;10076742;29;20752;-94
2022/08/22 05:54:11;;;;;;;5.43;4.40;;;15.40;99.90;;;;;;10113976;29;20212;-93
2022/08/22 05:59:14;;;;;;;4.97;4.10;;;15.50;99.90;;;;;;10128480;29;20237;-92
2022/08/22 06:04:55;;;;;;;9.73;4.10;;;15.60;99.90;;;;;;10130002;29;20204;-94
2022/08/22 06:10:20;;;;;;;5.23;4.30;;;15.70;99.90;;;;;;9977940;29;20266;-92
2022/08/22 06:15:27;;;;;;;5.40;4.87;;;15.60;99.90;;;;;;10012663;29;20218;-94
2022/08/22 06:21:05;;;;;;;5.63;4.70;;;15.60;99.90;;;;;;10019935;29;20290;-93
2022/08/22 06:26:10;;;;;;;6.53;4.50;;;15.60;99.90;;;;;;9952695;29;20310;-93
2022/08/22 06:31:27;;;;;;;5.87;4.83;;;15.60;99.90;;;;;;10019543;29;20346;-94
2022/08/22 06:36:33;;;;;;;7.50;4.50;;;15.70;99.90;;;;;;9982378;29;20222;-93
2022/08/22 06:41:46;;;;;;;7.07;4.53;;;15.80;99.90;;;;;;10125398;29;20216;-94
2022/08/22 06:46:54;;;;;;;8.20;4.13;;;15.70;99.90;;;;;;10139313;29;20208;-94
2022/08/22 06:52:01;;;;;;;10.63;4.23;;;15.90;99.90;;;;;;10139584;29;20289;-94
2022/08/22 06:57:05;;;;;;;9.47;4.87;;;15.90;99.90;;;;;;10138176;29;20730;-95
2022/08/22 07:02:24;;;;;;;7.00;4.40;;;15.80;99.90;;;;;;10139515;29;20252;-92
2022/08/22 07:07:27;;;;;;;6.80;4.27;;;15.90;99.90;;;;;;10125801;29;20212;-94
2022/08/22 07:12:36;;;;;;;5.73;5.07;;;15.80;99.90;;;;;;10124649;29;20208;-94
2022/08/22 07:17:48;;;;;;;7.97;4.30;;;15.90;99.90;;;;;;10121268;29;20261;-95
2022/08/22 07:22:59;;;;;;;10.23;5.13;;;15.90;99.90;;;;;;10133163;29;20237;-91
2022/08/22 07:28:22;;;;;;;9.40;4.83;;;16.00;99.90;;;;;;10121118;29;20229;-92
2022/08/22 07:33:46;;;;;;;7.40;4.30;;;16.10;99.90;;;;;;10137842;29;20208;-93
2022/08/22 07:39:00;;;;;;;6.27;4.70;;;16.20;99.90;;;;;;10151654;29;20209;-94
2022/08/22 07:44:19;;;;;;;7.97;4.33;;;16.20;99.90;;;;;;10163588;29;20208;-94
2022/08/22 07:49:46;;;;;;;6.27;4.10;;;16.30;99.90;;;;;;10116714;29;20228;-95
2022/08/22 07:55:16;;;;;;;7.27;4.90;;;16.40;99.90;;;;;;10129438;29;20212;-94
2022/08/22 08:00:22;;;;;;;5.60;4.50;;;16.40;99.90;;;;;;10136431;29;20263;-94
2022/08/22 08:05:31;;;;;;;9.33;5.30;;;16.40;99.90;;;;;;10142165;29;20275;-93
2022/08/22 08:10:38;;;;;;;7.80;4.57;;;16.40;99.90;;;;;;10133100;29;20236;-94
2022/08/22 08:15:44;;;;;;;8.30;5.97;;;16.40;99.90;;;;;;10145548;29;20204;-96
2022/08/22 08:21:03;;;;;;;9.27;5.17;;;16.60;99.90;;;;;;10151459;29;20334;-93
2022/08/22 08:26:11;;;;;;;9.93;5.47;;;16.50;99.90;;;;;;10135124;29;20220;-94
2022/08/22 08:31:26;;;;;;;8.23;5.67;;;16.80;99.90;;;;;;10137711;29;20272;-94
2022/08/22 08:37:09;;;;;;;5.47;4.93;;;16.90;99.90;;;;;;10140534;29;20267;-94
2022/08/22 08:43:30;;;;;;;10.38;4.50;;;16.80;99.90;;;;;;10134479;29;20287;-94
2022/08/22 08:48:33;;;;;;;5.43;4.93;;;17.00;99.90;;;;;;10133871;29;20240;-95
2022/08/22 08:53:58;;;;;;;7.10;4.73;;;17.00;99.90;;;;;;10137553;29;20216;-94
2022/08/22 08:59:27;;;;;;;12.57;5.47;;;17.10;99.90;;;;;;10123286;29;20220;-94
2022/08/22 09:04:48;;;;;;;7.78;5.15;;;17.20;99.90;;;;;;10185357;29;20664;-96
2022/08/22 09:10:24;;;;;;;6.93;5.45;;;17.30;99.90;;;;;;10202720;29;20227;-95
2022/08/22 09:15:48;;;;;;;8.07;6.07;;;17.40;99.90;;;;;;10152833;29;20200;-96
2022/08/22 09:21:27;;;;;;;11.07;6.55;;;17.40;99.90;;;;;;10171110;29;20307;-95
2022/08/22 09:27:00;;;;;;;10.05;6.22;;;17.50;99.90;;;;;;10192057;29;20278;-95
2022/08/22 09:32:19;;;;;;;8.23;6.75;;;17.70;99.90;;;;;;10175791;29;20223;-93
2022/08/22 09:37:45;;;;;;;15.80;7.93;;;17.50;99.90;;;;;;10165274;29;20231;-94
2022/08/22 09:43:05;;;;;;;18.77;9.10;;;17.50;99.90;;;;;;10169329;29;20215;-93
2022/08/22 09:48:35;;;;;;;11.45;7.80;;;17.50;99.90;;;;;;10167970;29;20211;-93
2022/08/22 09:53:44;;;;;;;10.35;6.68;;;17.60;99.90;;;;;;10161628;29;20624;-93
2022/08/22 09:59:04;;;;;;;11.60;7.95;;;17.50;99.90;;;;;;10171376;29;20271;-93
2022/08/22 10:04:32;;;;;;;10.55;7.50;;;17.50;99.90;;;;;;10178109;29;20236;-94
2022/08/22 10:09:55;;;;;;;7.72;5.35;;;17.60;99.90;;;;;;10163425;29;20327;-93
2022/08/22 10:15:20;;;;;;;7.65;6.65;;;17.70;99.90;;;;;;10126775;29;20208;-94
2022/08/22 10:20:30;;;;;;;9.80;7.38;;;17.70;99.90;;;;;;10152201;29;20243;-94
2022/08/22 10:26:10;;;;;;;11.43;7.97;;;17.40;99.90;;;;;;10143095;29;20243;-95
2022/08/22 10:31:31;;;;;;;13.57;8.45;;;17.20;99.90;;;;;;10150192;29;20260;-92
2022/08/22 10:36:44;;;;;;;4.32;3.92;;;17.50;99.90;;;;;;10154140;29;20684;-87
2022/08/22 10:42:22;;;;;;;6.75;3.75;;;18.30;99.90;;;;;;10157935;29;20341;-88
2022/08/22 10:48:00;;;;;;;3.35;2.70;;;17.90;99.90;;;;;;10157050;29;20263;-89
2022/08/22 10:58:39;;;;;;;3.50;3.05;;;18.10;99.90;;;;;;10156789;29;20322;-88
2022/08/22 11:04:01;;;;;;;3.30;1.98;;;17.90;99.90;;;;;;10173542;29;20228;-87
2022/08/22 11:09:31;;;;;;;5.15;2.13;;;17.80;99.90;;;;;;10157409;29;20684;-88
2022/08/22 11:14:59;;;;;;;4.97;1.85;;;17.40;99.90;;;;;;10158088;29;20303;-88
2022/08/22 11:20:25;;;;;;;7.25;2.65;;;17.20;99.90;;;;;;10172658;29;20266;-88
2022/08/22 11:25:43;;;;;;;2.92;1.73;;;17.10;99.90;;;;;;10155960;29;20310;-87
2022/08/22 11:31:15;;;;;;;2.80;2.05;;;17.00;99.90;;;;;;10156691;29;20271;-88
2022/08/22 11:36:37;;;;;;;4.90;2.13;;;17.10;99.90;;;;;;10155984;29;20231;-88
2022/08/22 11:41:43;;;;;;;5.65;2.25;;;17.20;99.90;;;;;;10156128;29;20251;-88
2022/08/22 11:47:00;;;;;;;5.18;2.38;;;17.30;99.90;;;;;;10173443;29;20291;-92
2022/08/22 11:52:25;;;;;;;5.03;3.58;;;17.40;99.90;;;;;;10138246;29;20260;-90
2022/08/22 11:57:54;;;;;;;5.43;2.13;;;17.60;99.90;;;;;;10155508;29;20215;-89
2022/08/22 12:03:31;;;;;;;6.57;2.75;;;17.50;99.90;;;;;;10159815;29;20294;-90
2022/08/22 12:08:42;;;;;;;5.95;3.03;;;17.60;99.90;;;;;;10132646;29;20243;-90
2022/08/22 12:14:04;;;;;;;4.18;2.47;;;18.00;99.90;;;;;;10153572;29;20299;-89
2022/08/22 12:19:23;;;;;;;6.40;3.58;;;18.10;99.90;;;;;;10146208;29;20651;-91
2022/08/22 12:24:35;;;;;;;5.00;3.80;;;18.20;99.90;;;;;;10148586;29;20263;-91
2022/08/22 12:29:38;;;;;;;6.10;2.92;;;;;;;;;;10145264;29;20255;-91
2022/08/22 12:34:52;;;;;;;4.32;2.58;;;18.40;99.90;;;;;;10158052;29;20263;-91
2022/08/22 12:40:07;;;;;;;8.95;2.88;;;18.30;99.90;;;;;;10214780;23;20696;-87
2022/08/22 12:45:29;;;;;;;8.65;3.50;;;18.50;99.90;;;;;;10210578;29;20233;-87
2022/08/22 12:50:56;;;;;;;4.38;3.55;;;18.50;99.90;;;;;;10209052;29;20250;-86
2022/08/22 12:56:19;;;;;;;5.13;3.45;;;18.90;99.90;;;;;;10191014;29;20608;-86
2022/08/22 13:01:23;;;;;;;5.03;3.20;;;19.30;99.90;;;;;;10188017;29;20683;-86
2022/08/22 13:06:44;;;;;;;3.83;3.10;;;19.80;99.90;;;;;;10178220;29;20228;-85
2022/08/22 13:11:55;;;;;;;3.60;3.22;;;19.90;99.90;;;;;;10158434;29;20317;-86
2022/08/22 13:17:06;;;;;;;5.20;2.92;;;19.80;99.90;;;;;;10208371;29;20227;-84
2022/08/22 13:22:30;;;;;;;4.13;3.72;;;19.50;99.90;;;;;;10221755;29;20311;-84
2022/08/22 13:27:40;;;;;;;7.40;4.30;;;20.00;99.90;;;;;;10180191;29;20242;-84
2022/08/22 13:33:03;;;;;;;5.32;3.05;;;20.70;99.90;;;;;;10196688;29;20309;-86
2022/08/22 13:38:23;;;;;;;4.95;4.47;;;20.90;99.90;;;;;;10207431;29;20317;-84
2022/08/22 13:43:35;;;;;;;9.90;3.30;;;21.30;99.90;;;;;;10190562;29;20226;-84
2022/08/22 13:48:48;;;;;;;4.07;3.38;;;21.00;99.90;;;;;;10189085;29;20301;-84
2022/08/22 13:54:18;;;;;;;7.50;3.38;;;21.00;99.90;;;;;;10206711;29;20234;-84
2022/08/22 13:59:37;;;;;;;4.47;4.07;;;20.90;99.90;;;;;;10200988;29;20230;-84
2022/08/22 14:05:00;;;;;;;4.22;3.40;;;21.20;99.90;;;;;;10173301;29;20234;-84
2022/08/22 14:10:32;;;;;;;13.60;4.57;;;21.20;99.90;;;;;;10207993;29;20246;-85
2022/08/22 14:15:36;;;;;;;5.47;3.35;;;21.60;99.90;;;;;;10184561;29;20239;-84
2022/08/22 14:20:47;;;;;;;4.95;4.55;;;21.90;99.90;;;;;;10197211;29;20242;-84
2022/08/22 14:25:50;;;;;;;5.03;3.50;;;21.90;99.90;;;;;;10190152;29;20238;-84
2022/08/22 14:31:10;;;;;;;6.72;3.97;;;21.90;99.90;;;;;;10207938;29;20234;-85
2022/08/22 14:36:20;;;;;;;6.80;3.38;;;21.40;99.90;;;;;;10153291;29;20263;-85
2022/08/22 14:41:30;;;;;;;13.80;3.92;;;21.80;99.90;;;;;;10175869;29;20204;-85
2022/08/22 14:47:00;;;;;;;8.52;4.22;;;21.60;99.90;;;;;;10198752;29;20226;-85
2022/08/22 14:52:10;;;;;;;7.05;4.00;;;21.40;99.90;;;;;;10213847;29;20258;-84
2022/08/22 14:57:21;;;;;;;19.58;4.45;;;21.50;99.90;;;;;;10173280;29;20211;-84
2022/08/22 15:02:29;;;;;;;11.15;4.28;;;21.60;99.90;;;;;;10202907;29;20243;-85
2022/08/22 15:07:35;;;;;;;5.03;3.38;;;21.90;99.90;;;;;;10194624;29;20235;-87
2022/08/22 15:12:50;;;;;;;5.43;3.38;;;22.10;99.90;;;;;;10195336;29;20258;-86
2022/08/22 15:17:53;;;;;;;3.00;2.80;;;21.50;99.90;;;;;;10197003;29;20238;-86
2022/08/22 15:23:00;;;;;;;5.38;2.95;;;21.70;99.90;;;;;;10195338;29;20678;-86
2022/08/22 15:28:06;;;;;;;8.18;3.13;;;21.80;99.90;;;;;;10184352;29;20268;-90
2022/08/22 15:33:31;;;;;;;5.70;3.17;;;21.20;99.90;;;;;;10158569;29;20306;-85
2022/08/22 15:38:52;;;;;;;4.28;3.22;;;21.30;99.90;;;;;;10205732;29;20704;-86
2022/08/22 15:44:09;;;;;;;3.45;3.00;;;21.30;99.90;;;;;;10207252;29;20297;-86
2022/08/22 15:49:36;;;;;;;4.22;3.30;;;21.10;99.90;;;;;;10211011;29;20933;-86
2022/08/22 15:54:52;;;;;;;6.60;2.55;;;21.20;99.90;;;;;;10195169;29;20266;-84
2022/08/22 15:59:57;;;;;;;4.50;2.42;;;21.10;99.90;;;;;;10176331;29;20239;-86
2022/08/22 16:05:09;;;;;;;4.00;3.45;;;21.10;99.90;;;;;;10192830;29;20207;-85
2022/08/22 16:10:21;;;;;;;5.47;2.65;;;20.70;99.90;;;;;;10196440;29;20211;-84
2022/08/22 16:15:45;;;;;;;6.63;3.50;;;20.80;99.90;;;;;;10199418;29;20203;-86
2022/08/22 16:20:53;;;;;;;4.47;3.10;;;21.80;99.90;;;;;;10194085;29;20629;-85
2022/08/22 16:25:55;;;;;;;4.38;3.15;;;22.30;99.90;;;;;;10210133;29;20278;-86
2022/08/22 16:31:15;;;;;;;7.22;4.47;;;21.50;99.90;;;;;;10210011;29;20266;-85
2022/08/22 16:36:36;;;;;;;4.68;3.50;;;21.30;99.90;;;;;;10210449;29;20723;-85
2022/08/22 16:41:42;;;;;;;7.95;4.03;;;20.80;99.90;;;;;;10193454;29;20254;-85
2022/08/22 16:46:46;;;;;;;5.05;3.35;;;20.30;99.90;;;;;;10193784;29;20242;-85
2022/08/22 16:52:27;;;;;;;5.05;4.55;;;20.30;99.90;;;;;;10193527;29;20395;-85
2022/08/22 16:57:51;;;;;;;8.80;5.38;;;20.00;99.90;;;;;;10088096;29;20750;-85
2022/08/22 17:03:22;;;;;;;6.53;5.30;;;20.00;99.90;;;;;;10088798;29;20248;-85
2022/08/22 17:08:43;;;;;;;7.22;4.03;;;19.60;99.90;;;;;;10074290;29;20249;-86
2022/08/22 17:14:04;;;;;;;5.25;4.20;;;20.30;99.90;;;;;;10049448;29;20279;-88
2022/08/22 17:19:27;;;;;;;7.70;5.25;;;20.00;99.90;;;;;;10061632;29;20303;-83
2022/08/22 17:24:39;;;;;;;7.75;6.97;;;19.20;99.90;;;;;;10034092;29;20301;-85
2022/08/22 17:30:05;;;;;;;17.60;10.77;;;19.00;99.90;;;;;;10200986;29;20251;-84
2022/08/22 17:35:50;;;;;;;7.18;5.93;;;18.90;99.90;;;;;;10190912;29;20243;-84
2022/08/22 17:40:58;;;;;;;7.50;6.03;;;18.80;99.90;;;;;;10207897;29;20684;-85
2022/08/22 17:46:29;;;;;;;7.40;6.05;;;18.80;99.90;;;;;;10192117;28;20250;-84
2022/08/22 17:52:01;;;;;;;7.90;5.82;;;18.90;99.90;;;;;;10124980;29;20294;-83
2022/08/22 17:57:30;;;;;;;12.18;6.97;;;19.20;99.90;;;;;;10110094;29;20244;-84
2022/08/22 18:02:56;;;;;;;12.48;6.30;;;19.10;99.90;;;;;;10108774;29;20247;-84
2022/08/22 18:08:29;;;;;;;7.35;5.07;;;18.90;99.90;;;;;;10109668;29;20253;-84
2022/08/22 18:13:51;;;;;;;9.05;5.43;;;18.90;99.90;;;;;;10118922;29;20347;-84
2022/08/22 18:19:10;;;;;;;11.02;4.40;;;18.80;99.90;;;;;;10110203;29;20719;-84
2022/08/22 18:24:33;;;;;;;7.63;5.18;;;18.90;99.90;;;;;;10130576;29;21107;-84
2022/08/22 18:29:51;;;;;;;5.95;5.35;;;18.90;99.90;;;;;;10194343;29;20227;-83
2022/08/22 18:35:07;;;;;;;7.25;5.35;;;18.80;99.90;;;;;;10198091;29;20684;-84
2022/08/22 18:40:44;;;;;;;6.32;5.72;;;18.80;99.90;;;;;;10213625;29;20242;-83
2022/08/22 18:45:52;;;;;;;6.80;5.13;;;18.80;99.90;;;;;;10213896;29;20675;-84
2022/08/22 18:51:37;;;;;;;9.10;6.57;;;18.70;99.90;;;;;;9855988;28;9999819;-86
2022/08/22 18:57:06;;;;;;;7.20;5.05;;;18.80;99.90;;;;;;10210135;29;20234;-85
2022/08/22 19:02:40;;;;;;;8.10;5.20;;;18.70;99.90;;;;;;10210910;29;20294;-85
2022/08/22 19:08:01;;;;;;;6.38;5.78;;;18.40;99.90;;;;;;10184668;29;20286;-86
2022/08/22 19:13:25;;;;;;;17.85;7.50;;;18.20;99.90;;;;;;10188647;29;20250;-84
2022/08/22 19:18:46;;;;;;;5.30;4.80;;;18.20;99.90;;;;;;10201018;29;20230;-84
2022/08/22 19:23:51;;;;;;;8.60;4.65;;;18.20;99.90;;;;;;10195916;29;20231;-84
2022/08/22 19:28:56;;;;;;;7.85;4.60;;;18.10;99.90;;;;;;10213197;29;20239;-84
2022/08/22 19:34:32;;;;;;;7.88;5.75;;;18.00;99.90;;;;;;10212374;29;20301;-83
2022/08/22 19:39:41;;;;;;;6.43;3.75;;;18.10;99.90;;;;;;10195982;29;20270;-84
2022/08/22 19:44:52;;;;;;;6.63;4.15;;;17.90;99.90;;;;;;10196411;29;20642;-84
2022/08/22 19:50:13;;;;;;;6.93;3.63;;;17.90;99.90;;;;;;10212523;29;20310;-84
2022/08/22 19:55:37;;;;;;;5.63;3.38;;;18.00;99.90;;;;;;10212640;29;20234;-84
2022/08/22 20:00:59;;;;;;;2.90;2.45;;;18.00;99.90;;;;;;10195438;29;20258;-83
2022/08/22 20:06:03;;;;;;;4.88;2.80;;;17.90;99.90;;;;;;10206960;29;20298;-83
2022/08/22 20:11:18;;;;;;;6.28;2.22;;;17.90;99.90;;;;;;10211845;29;20266;-84
2022/08/22 20:16:41;;;;;;;5.07;1.80;;;18.20;99.90;;;;;;10178954;29;20279;-84
2022/08/22 20:21:57;;;;;;;5.22;2.10;;;18.20;99.90;;;;;;10193274;29;20447;-86
2022/08/22 20:27:04;;;;;;;9.50;1.90;;;18.10;99.90;;;;;;10208624;29;20218;-86
2022/08/22 20:32:20;;;;;;;4.07;2.10;;;18.30;99.90;;;;;;10206595;29;20396;-87
2022/08/22 20:37:27;;;;;;;5.45;1.88;;;18.40;99.90;;;;;;10161694;29;20317;-86
2022/08/22 20:42:52;;;;;;;4.55;2.15;;;18.20;99.90;;;;;;10207790;29;20289;-86
2022/08/22 20:47:55;;;;;;;3.13;1.80;;;18.10;99.90;;;;;;10166232;29;20231;-87
2022/08/22 20:53:18;;;;;;;3.45;2.15;;;18.00;99.90;;;;;;10205182;29;20644;-87
2022/08/22 20:58:24;;;;;;;4.50;1.90;;;17.90;99.90;;;;;;10185731;29;20266;-86
2022/08/22 21:03:44;;;;;;;3.97;2.13;;;18.00;99.90;;;;;;10208128;29;20774;-86
2022/08/22 21:11:38;;;;;;;4.70;2.92;;;17.80;99.90;;;;;;10208297;29;20271;-85
2022/08/22 21:14:18;;;;;;;5.20;2.45;;;18.00;99.90;;;;;;10206418;29;20325;-86
2022/08/22 21:19:28;;;;;;;4.88;2.55;;;18.10;99.90;;;;;;10184050;29;20234;-87
2022/08/22 21:24:30;;;;;;;5.20;2.47;;;18.00;99.90;;;;;;10189715;29;20231;-86
2022/08/22 21:29:42;;;;;;;2.65;2.25;;;18.00;99.90;;;;;;10184395;29;20222;-87
2022/08/22 21:34:47;;;;;;;5.32;4.82;;;18.10;99.90;;;;;;10196840;29;20285;-84
2022/08/22 21:39:58;;;;;;;3.17;1.88;;;18.20;99.90;;;;;;10180969;29;20657;-85
2022/08/22 21:45:07;;;;;;;2.25;2.05;;;18.30;99.90;;;;;;10185624;29;20302;-85
2022/08/22 21:50:22;;;;;;;5.47;1.92;;;18.10;99.90;;;;;;10192407;29;20242;-86
2022/08/22 21:55:25;;;;;;;4.13;2.33;;;17.90;99.90;;;;;;10189810;29;21002;-86
2022/08/22 22:00:51;;;;;;;3.05;1.50;;;17.90;99.90;;;;;;10190795;29;20227;-85
2022/08/22 22:05:57;;;;;;;4.30;1.92;;;18.30;99.90;;;;;;10199544;29;20235;-85
2022/08/22 22:11:10;;;;;;;4.63;1.67;;;18.10;99.90;;;;;;10207250;29;20289;-85
2022/08/22 22:16:18;;;;;;;2.13;1.40;;;18.20;99.90;;;;;;10190417;29;20266;-85
2022/08/22 22:21:20;;;;;;;2.40;1.85;;;18.10;99.90;;;;;;10204927;29;20286;-85
2022/08/22 22:26:23;;;;;;;7.88;2.38;;;18.00;99.90;;;;;;10190436;29;20239;-86
2022/08/22 22:31:25;;;;;;;3.53;1.85;;;17.90;99.90;;;;;;10190469;29;20258;-86
2022/08/22 22:36:28;;;;;;;1.88;1.67;;;17.90;99.90;;;;;;10188103;29;20258;-84
2022/08/22 22:41:31;;;;;;;3.78;1.70;;;17.90;99.90;;;;;;10204976;29;20297;-88
2022/08/22 22:46:33;;;;;;;4.97;1.95;;;17.80;99.90;;;;;;10189017;29;20286;-85
2022/08/22 22:51:36;;;;;;;2.67;1.70;;;17.80;99.90;;;;;;10189648;29;20258;-85
2022/08/22 22:56:38;;;;;;;7.00;2.00;;;17.80;99.90;;;;;;10207102;29;20238;-85
2022/08/22 23:02:05;;;;;;;4.60;2.17;;;18.00;99.90;;;;;;10211033;29;20242;-85
2022/08/22 23:07:09;;;;;;;4.47;2.15;;;17.80;99.90;;;;;;10196205;29;20238;-86
2022/08/22 23:12:13;;;;;;;3.10;2.00;;;17.90;99.90;;;;;;10195656;29;20294;-85
2022/08/22 23:17:17;;;;;;;4.20;1.42;;;17.80;99.90;;;;;;10213364;29;20635;-85
2022/08/22 23:22:19;;;;;;;4.10;2.05;;;17.70;99.90;;;;;;10196310;29;20234;-85
2022/08/22 23:27:22;;;;;;;4.40;1.83;;;17.80;99.90;;;;;;10213043;29;20242;-85
2022/08/22 23:32:24;;;;;;;7.55;2.10;;;17.60;99.90;;;;;;10213442;29;20251;-85
2022/08/22 23:37:27;;;;;;;2.17;1.83;;;17.70;99.90;;;;;;10212836;29;20667;-85
2022/08/22 23:42:30;;;;;;;6.43;2.63;;;17.60;99.90;;;;;;10175350;29;20274;-85
2022/08/22 23:47:32;;;;;;;2.55;1.63;;;17.70;99.90;;;;;;10212621;29;20238;-85
2022/08/22 23:52:35;;;;;;;4.10;2.33;;;17.70;99.90;;;;;;10212565;29;20278;-85
2022/08/22 23:57:37;;;;;;;6.57;1.70;;;17.60;99.90;;;;;;10212229;29;20235;-85
